sensor_id;sensor_type;location;lat;lon;timestamp;P1;durP1;ratioP1;P2;durP2;ratioP2
10719;SDS011;5411;58.386;15.560;2023-02-08T00:01:32;11.63;;;6.73;;
10719;SDS011;5411;58.386;15.560;2023-02-08T00:04:00;18.87;;;7.47;;
10719;SDS011;5411;58.386;15.560;2023-02-08T00:06:28;14.33;;;7.23;;
10719;SDS011;5411;58.386;15.560;2023-02-08T00:08:58;17.83;;;6.43;;
10719;SDS011;5411;58.386;15.560;2023-02-08T00:11:28;11.37;;;6.27;;
10719;SDS011;5411;58.386;15.560;2023-02-08T00:13:59;12.30;;;6.57;;
10719;SDS011;5411;58.386;15.560;2023-02-08T00:16:27;12.23;;;6.33;;
10719;SDS011;5411;58.386;15.560;2023-02-08T00:18:56;12.73;;;6.10;;
10719;SDS011;5411;58.386;15.560;2023-02-08T00:21:24;12.83;;;6.67;;
10719;SDS011;5411;58.386;15.560;2023-02-08T00:23:52;10.60;;;6.10;;
10719;SDS011;5411;58.386;15.560;2023-02-08T00:26:22;16.40;;;6.37;;
10719;SDS011;5411;58.386;15.560;2023-02-08T00:28:50;15.70;;;7.80;;
10719;SDS011;5411;58.386;15.560;2023-02-08T00:31:18;17.93;;;7.87;;
10719;SDS011;5411;58.386;15.560;2023-02-08T00:33:47;18.43;;;7.43;;
10719;SDS011;5411;58.386;15.560;2023-02-08T00:36:15;15.33;;;7.30;;
10719;SDS011;5411;58.386;15.560;2023-02-08T00:38:43;10.87;;;6.57;;
10719;SDS011;5411;58.386;15.560;2023-02-08T00:41:11;14.70;;;7.43;;
10719;SDS011;5411;58.386;15.560;2023-02-08T00:43:41;11.60;;;7.30;;
10719;SDS011;5411;58.386;15.560;2023-02-08T00:46:09;19.13;;;6.77;;
10719;SDS011;5411;58.386;15.560;2023-02-08T00:48:38;16.63;;;7.47;;
10719;SDS011;5411;58.386;15.560;2023-02-08T00:51:07;15.90;;;8.10;;
10719;SDS011;5411;58.386;15.560;2023-02-08T00:53:38;12.63;;;7.57;;
10719;SDS011;5411;58.386;15.560;2023-02-08T00:56:11;16.40;;;7.77;;
10719;SDS011;5411;58.386;15.560;2023-02-08T00:58:42;12.60;;;7.47;;
10719;SDS011;5411;58.386;15.560;2023-02-08T01:01:10;12.43;;;6.90;;
10719;SDS011;5411;58.386;15.560;2023-02-08T01:03:40;16.53;;;7.30;;
10719;SDS011;5411;58.386;15.560;2023-02-08T01:06:09;17.70;;;7.73;;
10719;SDS011;5411;58.386;15.560;2023-02-08T01:08:44;15.57;;;7.87;;
10719;SDS011;5411;58.386;15.560;2023-02-08T01:11:13;13.67;;;7.83;;
10719;SDS011;5411;58.386;15.560;2023-02-08T01:13:45;15.03;;;7.73;;
10719;SDS011;5411;58.386;15.560;2023-02-08T01:16:14;18.63;;;8.23;;
10719;SDS011;5411;58.386;15.560;2023-02-08T01:18:51;13.77;;;7.77;;
10719;SDS011;5411;58.386;15.560;2023-02-08T01:21:22;14.03;;;8.30;;
10719;SDS011;5411;58.386;15.560;2023-02-08T01:23:52;18.50;;;8.20;;
10719;SDS011;5411;58.386;15.560;2023-02-08T01:26:21;17.17;;;7.17;;
10719;SDS011;5411;58.386;15.560;2023-02-08T01:28:53;20.63;;;8.00;;
10719;SDS011;5411;58.386;15.560;2023-02-08T01:31:23;12.37;;;6.97;;
10719;SDS011;5411;58.386;15.560;2023-02-08T01:33:53;14.73;;;7.50;;
10719;SDS011;5411;58.386;15.560;2023-02-08T01:36:22;14.00;;;7.53;;
10719;SDS011;5411;58.386;15.560;2023-02-08T01:38:51;13.80;;;7.20;;
10719;SDS011;5411;58.386;15.560;2023-02-08T01:41:20;17.20;;;8.57;;
10719;SDS011;5411;58.386;15.560;2023-02-08T01:44:02;13.00;;;7.43;;
10719;SDS011;5411;58.386;15.560;2023-02-08T01:46:35;16.30;;;8.03;;
10719;SDS011;5411;58.386;15.560;2023-02-08T01:49:06;12.13;;;7.63;;
10719;SDS011;5411;58.386;15.560;2023-02-08T01:51:39;13.73;;;7.80;;
10719;SDS011;5411;58.386;15.560;2023-02-08T01:54:13;22.87;;;9.43;;
10719;SDS011;5411;58.386;15.560;2023-02-08T01:56:46;25.40;;;8.53;;
10719;SDS011;5411;58.386;15.560;2023-02-08T01:59:18;17.50;;;8.20;;
10719;SDS011;5411;58.386;15.560;2023-02-08T02:01:50;17.27;;;7.97;;
10719;SDS011;5411;58.386;15.560;2023-02-08T02:04:20;18.13;;;7.70;;
10719;SDS011;5411;58.386;15.560;2023-02-08T02:06:56;14.23;;;8.73;;
10719;SDS011;5411;58.386;15.560;2023-02-08T02:09:28;15.37;;;8.80;;
10719;SDS011;5411;58.386;15.560;2023-02-08T02:12:10;12.13;;;8.13;;
10719;SDS011;5411;58.386;15.560;2023-02-08T02:14:41;15.33;;;8.07;;
10719;SDS011;5411;58.386;15.560;2023-02-08T02:17:10;19.43;;;8.30;;
10719;SDS011;5411;58.386;15.560;2023-02-08T02:19:42;16.57;;;7.97;;
10719;SDS011;5411;58.386;15.560;2023-02-08T02:22:24;12.47;;;8.07;;
10719;SDS011;5411;58.386;15.560;2023-02-08T02:25:28;14.27;;;8.53;;
10719;SDS011;5411;58.386;15.560;2023-02-08T02:28:35;17.87;;;8.43;;
10719;SDS011;5411;58.386;15.560;2023-02-08T02:34:35;17.43;;;8.37;;
10719;SDS011;5411;58.386;15.560;2023-02-08T02:37:10;16.50;;;7.67;;
10719;SDS011;5411;58.386;15.560;2023-02-08T02:39:48;18.90;;;8.87;;
10719;SDS011;5411;58.386;15.560;2023-02-08T02:42:28;18.20;;;9.43;;
10719;SDS011;5411;58.386;15.560;2023-02-08T02:45:22;15.93;;;8.63;;
10719;SDS011;5411;58.386;15.560;2023-02-08T02:47:58;16.30;;;8.30;;
10719;SDS011;5411;58.386;15.560;2023-02-08T02:50:35;15.27;;;7.40;;
10719;SDS011;5411;58.386;15.560;2023-02-08T02:53:11;14.30;;;8.10;;
10719;SDS011;5411;58.386;15.560;2023-02-08T02:55:45;15.40;;;8.40;;
10719;SDS011;5411;58.386;15.560;2023-02-08T02:58:18;15.20;;;8.67;;
10719;SDS011;5411;58.386;15.560;2023-02-08T03:00:52;15.03;;;9.30;;
10719;SDS011;5411;58.386;15.560;2023-02-08T03:03:23;16.63;;;7.77;;
10719;SDS011;5411;58.386;15.560;2023-02-08T03:06:00;14.20;;;8.50;;
10719;SDS011;5411;58.386;15.560;2023-02-08T03:11:32;14.97;;;7.73;;
10719;SDS011;5411;58.386;15.560;2023-02-08T03:17:02;18.17;;;8.37;;
10719;SDS011;5411;58.386;15.560;2023-02-08T03:19:44;12.03;;;8.33;;
10719;SDS011;5411;58.386;15.560;2023-02-08T03:22:26;15.53;;;8.57;;
10719;SDS011;5411;58.386;15.560;2023-02-08T03:25:06;15.87;;;7.93;;
10719;SDS011;5411;58.386;15.560;2023-02-08T03:27:42;15.80;;;7.87;;
10719;SDS011;5411;58.386;15.560;2023-02-08T03:30:19;19.37;;;8.70;;
10719;SDS011;5411;58.386;15.560;2023-02-08T03:32:55;18.63;;;8.90;;
10719;SDS011;5411;58.386;15.560;2023-02-08T03:35:29;19.07;;;8.33;;
10719;SDS011;5411;58.386;15.560;2023-02-08T03:38:04;19.23;;;8.70;;
10719;SDS011;5411;58.386;15.560;2023-02-08T03:40:36;18.17;;;8.10;;
10719;SDS011;5411;58.386;15.560;2023-02-08T03:43:07;16.93;;;8.07;;
10719;SDS011;5411;58.386;15.560;2023-02-08T03:45:41;16.67;;;9.67;;
10719;SDS011;5411;58.386;15.560;2023-02-08T03:48:19;18.47;;;8.23;;
10719;SDS011;5411;58.386;15.560;2023-02-08T03:50:51;21.93;;;8.73;;
10719;SDS011;5411;58.386;15.560;2023-02-08T03:53:23;14.60;;;8.33;;
10719;SDS011;5411;58.386;15.560;2023-02-08T03:55:55;12.63;;;8.23;;
10719;SDS011;5411;58.386;15.560;2023-02-08T03:58:34;13.93;;;8.60;;
10719;SDS011;5411;58.386;15.560;2023-02-08T04:01:10;16.03;;;8.47;;
10719;SDS011;5411;58.386;15.560;2023-02-08T04:03:46;15.63;;;8.73;;
10719;SDS011;5411;58.386;15.560;2023-02-08T04:06:18;17.07;;;8.50;;
10719;SDS011;5411;58.386;15.560;2023-02-08T04:08:49;12.90;;;7.83;;
10719;SDS011;5411;58.386;15.560;2023-02-08T04:11:18;16.67;;;8.80;;
10719;SDS011;5411;58.386;15.560;2023-02-08T04:13:46;15.60;;;8.03;;
10719;SDS011;5411;58.386;15.560;2023-02-08T04:16:15;15.50;;;8.37;;
10719;SDS011;5411;58.386;15.560;2023-02-08T04:18:45;16.33;;;8.40;;
10719;SDS011;5411;58.386;15.560;2023-02-08T04:21:15;15.10;;;8.47;;
10719;SDS011;5411;58.386;15.560;2023-02-08T04:23:44;13.27;;;8.13;;
10719;SDS011;5411;58.386;15.560;2023-02-08T04:26:13;16.83;;;8.37;;
10719;SDS011;5411;58.386;15.560;2023-02-08T04:28:42;13.30;;;8.00;;
10719;SDS011;5411;58.386;15.560;2023-02-08T04:31:12;13.57;;;7.73;;
10719;SDS011;5411;58.386;15.560;2023-02-08T04:33:41;17.17;;;8.03;;
10719;SDS011;5411;58.386;15.560;2023-02-08T04:36:09;12.90;;;7.70;;
10719;SDS011;5411;58.386;15.560;2023-02-08T04:38:38;18.20;;;9.20;;
10719;SDS011;5411;58.386;15.560;2023-02-08T04:41:07;14.37;;;8.17;;
10719;SDS011;5411;58.386;15.560;2023-02-08T04:43:37;12.27;;;8.27;;
10719;SDS011;5411;58.386;15.560;2023-02-08T04:46:05;15.67;;;8.47;;
10719;SDS011;5411;58.386;15.560;2023-02-08T04:48:34;15.10;;;8.50;;
10719;SDS011;5411;58.386;15.560;2023-02-08T04:51:02;13.87;;;8.13;;
10719;SDS011;5411;58.386;15.560;2023-02-08T04:53:31;13.10;;;8.80;;
10719;SDS011;5411;58.386;15.560;2023-02-08T04:56:00;12.33;;;8.03;;
10719;SDS011;5411;58.386;15.560;2023-02-08T04:58:28;15.40;;;8.80;;
10719;SDS011;5411;58.386;15.560;2023-02-08T05:00:58;15.40;;;8.47;;
10719;SDS011;5411;58.386;15.560;2023-02-08T05:03:26;15.57;;;8.23;;
10719;SDS011;5411;58.386;15.560;2023-02-08T05:05:55;16.27;;;7.67;;
10719;SDS011;5411;58.386;15.560;2023-02-08T05:08:24;11.83;;;7.70;;
10719;SDS011;5411;58.386;15.560;2023-02-08T05:10:53;11.40;;;7.40;;
10719;SDS011;5411;58.386;15.560;2023-02-08T05:13:27;13.90;;;8.27;;
10719;SDS011;5411;58.386;15.560;2023-02-08T05:15:59;11.77;;;7.53;;
10719;SDS011;5411;58.386;15.560;2023-02-08T05:18:28;15.00;;;8.10;;
10719;SDS011;5411;58.386;15.560;2023-02-08T05:20:56;14.97;;;7.73;;
10719;SDS011;5411;58.386;15.560;2023-02-08T05:23:26;13.57;;;8.10;;
10719;SDS011;5411;58.386;15.560;2023-02-08T05:25:54;12.53;;;7.90;;
10719;SDS011;5411;58.386;15.560;2023-02-08T05:28:23;14.27;;;8.20;;
10719;SDS011;5411;58.386;15.560;2023-02-08T05:30:55;13.47;;;8.03;;
10719;SDS011;5411;58.386;15.560;2023-02-08T05:33:25;15.27;;;7.80;;
10719;SDS011;5411;58.386;15.560;2023-02-08T05:35:53;12.40;;;7.73;;
10719;SDS011;5411;58.386;15.560;2023-02-08T05:38:22;11.60;;;7.57;;
10719;SDS011;5411;58.386;15.560;2023-02-08T05:40:50;14.57;;;7.93;;
10719;SDS011;5411;58.386;15.560;2023-02-08T05:43:18;14.80;;;7.90;;
10719;SDS011;5411;58.386;15.560;2023-02-08T05:45:48;13.63;;;7.83;;
10719;SDS011;5411;58.386;15.560;2023-02-08T05:48:16;10.63;;;7.57;;
10719;SDS011;5411;58.386;15.560;2023-02-08T05:50:46;12.87;;;8.20;;
10719;SDS011;5411;58.386;15.560;2023-02-08T05:53:16;11.30;;;7.43;;
10719;SDS011;5411;58.386;15.560;2023-02-08T05:55:45;12.20;;;8.33;;
10719;SDS011;5411;58.386;15.560;2023-02-08T05:58:16;14.20;;;8.23;;
10719;SDS011;5411;58.386;15.560;2023-02-08T06:00:44;12.57;;;7.60;;
10719;SDS011;5411;58.386;15.560;2023-02-08T06:03:12;14.40;;;7.83;;
10719;SDS011;5411;58.386;15.560;2023-02-08T06:05:41;12.03;;;8.40;;
10719;SDS011;5411;58.386;15.560;2023-02-08T06:08:11;11.30;;;8.07;;
10719;SDS011;5411;58.386;15.560;2023-02-08T06:10:39;12.07;;;8.33;;
10719;SDS011;5411;58.386;15.560;2023-02-08T06:13:08;13.43;;;8.43;;
10719;SDS011;5411;58.386;15.560;2023-02-08T06:15:36;12.33;;;7.87;;
10719;SDS011;5411;58.386;15.560;2023-02-08T06:18:04;11.87;;;7.63;;
10719;SDS011;5411;58.386;15.560;2023-02-08T06:20:34;11.87;;;8.07;;
10719;SDS011;5411;58.386;15.560;2023-02-08T06:23:03;14.17;;;8.17;;
10719;SDS011;5411;58.386;15.560;2023-02-08T06:25:33;11.20;;;7.80;;
10719;SDS011;5411;58.386;15.560;2023-02-08T06:28:04;11.23;;;7.77;;
10719;SDS011;5411;58.386;15.560;2023-02-08T06:30:36;11.87;;;8.10;;
10719;SDS011;5411;58.386;15.560;2023-02-08T06:33:05;9.90;;;7.27;;
10719;SDS011;5411;58.386;15.560;2023-02-08T06:35:33;11.20;;;8.23;;
10719;SDS011;5411;58.386;15.560;2023-02-08T06:38:01;12.33;;;8.17;;
10719;SDS011;5411;58.386;15.560;2023-02-08T06:40:30;10.30;;;7.27;;
10719;SDS011;5411;58.386;15.560;2023-02-08T06:42:59;10.97;;;7.30;;
10719;SDS011;5411;58.386;15.560;2023-02-08T06:45:28;14.07;;;8.57;;
10719;SDS011;5411;58.386;15.560;2023-02-08T06:47:56;13.10;;;7.50;;
10719;SDS011;5411;58.386;15.560;2023-02-08T06:50:24;12.43;;;7.57;;
10719;SDS011;5411;58.386;15.560;2023-02-08T06:52:53;14.90;;;8.13;;
10719;SDS011;5411;58.386;15.560;2023-02-08T06:55:22;14.97;;;8.07;;
10719;SDS011;5411;58.386;15.560;2023-02-08T06:57:51;12.10;;;7.90;;
10719;SDS011;5411;58.386;15.560;2023-02-08T07:00:21;13.13;;;8.43;;
10719;SDS011;5411;58.386;15.560;2023-02-08T07:02:50;16.13;;;8.53;;
10719;SDS011;5411;58.386;15.560;2023-02-08T07:05:21;12.53;;;8.10;;
10719;SDS011;5411;58.386;15.560;2023-02-08T07:07:49;12.50;;;8.87;;
10719;SDS011;5411;58.386;15.560;2023-02-08T07:10:19;13.23;;;8.33;;
10719;SDS011;5411;58.386;15.560;2023-02-08T07:12:47;13.50;;;8.70;;
10719;SDS011;5411;58.386;15.560;2023-02-08T07:15:16;15.73;;;8.60;;
10719;SDS011;5411;58.386;15.560;2023-02-08T07:17:46;15.50;;;8.83;;
10719;SDS011;5411;58.386;15.560;2023-02-08T07:20:17;13.67;;;8.53;;
10719;SDS011;5411;58.386;15.560;2023-02-08T07:22:46;14.67;;;8.90;;
10719;SDS011;5411;58.386;15.560;2023-02-08T07:25:14;14.43;;;9.10;;
10719;SDS011;5411;58.386;15.560;2023-02-08T07:27:42;11.67;;;8.23;;
10719;SDS011;5411;58.386;15.560;2023-02-08T07:30:11;14.50;;;8.60;;
10719;SDS011;5411;58.386;15.560;2023-02-08T07:32:43;13.83;;;8.97;;
10719;SDS011;5411;58.386;15.560;2023-02-08T07:35:18;18.13;;;8.53;;
10719;SDS011;5411;58.386;15.560;2023-02-08T07:37:46;16.40;;;9.70;;
10719;SDS011;5411;58.386;15.560;2023-02-08T07:40:15;12.73;;;8.90;;
10719;SDS011;5411;58.386;15.560;2023-02-08T07:42:43;14.63;;;9.20;;
10719;SDS011;5411;58.386;15.560;2023-02-08T07:45:11;17.53;;;9.23;;
10719;SDS011;5411;58.386;15.560;2023-02-08T07:47:39;16.90;;;10.37;;
10719;SDS011;5411;58.386;15.560;2023-02-08T07:50:08;16.60;;;9.57;;
10719;SDS011;5411;58.386;15.560;2023-02-08T07:52:38;15.00;;;9.43;;
10719;SDS011;5411;58.386;15.560;2023-02-08T07:55:09;12.90;;;9.60;;
10719;SDS011;5411;58.386;15.560;2023-02-08T07:57:42;15.13;;;9.00;;
10719;SDS011;5411;58.386;15.560;2023-02-08T08:00:11;14.17;;;8.33;;
10719;SDS011;5411;58.386;15.560;2023-02-08T08:02:40;13.77;;;9.00;;
10719;SDS011;5411;58.386;15.560;2023-02-08T08:05:09;15.83;;;9.10;;
10719;SDS011;5411;58.386;15.560;2023-02-08T08:07:39;14.33;;;9.23;;
10719;SDS011;5411;58.386;15.560;2023-02-08T08:10:15;15.90;;;8.27;;
10719;SDS011;5411;58.386;15.560;2023-02-08T08:12:43;14.27;;;8.50;;
10719;SDS011;5411;58.386;15.560;2023-02-08T08:15:11;13.50;;;8.60;;
10719;SDS011;5411;58.386;15.560;2023-02-08T08:17:39;15.33;;;8.27;;
10719;SDS011;5411;58.386;15.560;2023-02-08T08:20:10;12.37;;;8.37;;
10719;SDS011;5411;58.386;15.560;2023-02-08T08:22:40;11.90;;;7.53;;
10719;SDS011;5411;58.386;15.560;2023-02-08T08:25:08;16.30;;;7.93;;
10719;SDS011;5411;58.386;15.560;2023-02-08T08:27:37;14.60;;;8.87;;
10719;SDS011;5411;58.386;15.560;2023-02-08T08:30:05;13.53;;;8.90;;
10719;SDS011;5411;58.386;15.560;2023-02-08T08:32:35;13.87;;;7.77;;
10719;SDS011;5411;58.386;15.560;2023-02-08T08:35:04;10.83;;;7.50;;
10719;SDS011;5411;58.386;15.560;2023-02-08T08:37:33;14.07;;;7.93;;
10719;SDS011;5411;58.386;15.560;2023-02-08T08:40:04;17.33;;;8.87;;
10719;SDS011;5411;58.386;15.560;2023-02-08T08:42:34;12.40;;;7.77;;
10719;SDS011;5411;58.386;15.560;2023-02-08T08:45:05;10.50;;;7.30;;
10719;SDS011;5411;58.386;15.560;2023-02-08T08:47:34;10.97;;;7.67;;
10719;SDS011;5411;58.386;15.560;2023-02-08T08:50:02;10.67;;;8.03;;
10719;SDS011;5411;58.386;15.560;2023-02-08T08:52:31;11.47;;;8.47;;
10719;SDS011;5411;58.386;15.560;2023-02-08T08:54:59;16.60;;;9.10;;
10719;SDS011;5411;58.386;15.560;2023-02-08T08:57:29;12.60;;;7.67;;
10719;SDS011;5411;58.386;15.560;2023-02-08T08:59:58;14.10;;;7.50;;
10719;SDS011;5411;58.386;15.560;2023-02-08T09:02:26;11.07;;;7.57;;
10719;SDS011;5411;58.386;15.560;2023-02-08T09:04:54;10.10;;;6.50;;
10719;SDS011;5411;58.386;15.560;2023-02-08T09:07:25;9.30;;;6.90;;
10719;SDS011;5411;58.386;15.560;2023-02-08T09:09:54;11.60;;;7.27;;
10719;SDS011;5411;58.386;15.560;2023-02-08T09:12:22;14.27;;;7.60;;
10719;SDS011;5411;58.386;15.560;2023-02-08T09:14:52;11.03;;;7.10;;
10719;SDS011;5411;58.386;15.560;2023-02-08T09:17:20;11.90;;;7.43;;
10719;SDS011;5411;58.386;15.560;2023-02-08T09:19:48;9.87;;;6.53;;
10719;SDS011;5411;58.386;15.560;2023-02-08T09:22:17;12.03;;;6.30;;
10719;SDS011;5411;58.386;15.560;2023-02-08T09:24:45;12.83;;;6.80;;
10719;SDS011;5411;58.386;15.560;2023-02-08T09:27:14;8.83;;;6.30;;
10719;SDS011;5411;58.386;15.560;2023-02-08T09:29:44;8.83;;;6.53;;
10719;SDS011;5411;58.386;15.560;2023-02-08T09:32:14;10.57;;;6.43;;
10719;SDS011;5411;58.386;15.560;2023-02-08T09:34:42;11.00;;;5.87;;
10719;SDS011;5411;58.386;15.560;2023-02-08T09:37:10;10.83;;;7.10;;
10719;SDS011;5411;58.386;15.560;2023-02-08T09:39:47;10.43;;;6.73;;
10719;SDS011;5411;58.386;15.560;2023-02-08T09:42:27;8.50;;;5.90;;
10719;SDS011;5411;58.386;15.560;2023-02-08T09:47:43;8.03;;;5.63;;
10719;SDS011;5411;58.386;15.560;2023-02-08T09:50:18;8.70;;;6.07;;
10719;SDS011;5411;58.386;15.560;2023-02-08T09:52:53;11.20;;;6.33;;
10719;SDS011;5411;58.386;15.560;2023-02-08T09:55:29;9.90;;;6.10;;
10719;SDS011;5411;58.386;15.560;2023-02-08T09:58:04;8.60;;;5.67;;
10719;SDS011;5411;58.386;15.560;2023-02-08T10:00:46;7.80;;;6.13;;
10719;SDS011;5411;58.386;15.560;2023-02-08T10:03:26;9.97;;;6.30;;
10719;SDS011;5411;58.386;15.560;2023-02-08T10:06:00;8.23;;;5.50;;
10719;SDS011;5411;58.386;15.560;2023-02-08T10:08:30;7.33;;;5.13;;
10719;SDS011;5411;58.386;15.560;2023-02-08T10:11:07;7.03;;;5.30;;
10719;SDS011;5411;58.386;15.560;2023-02-08T10:13:59;7.53;;;4.73;;
10719;SDS011;5411;58.386;15.560;2023-02-08T10:16:47;5.33;;;4.80;;
10719;SDS011;5411;58.386;15.560;2023-02-08T10:19:32;6.97;;;4.67;;
10719;SDS011;5411;58.386;15.560;2023-02-08T10:22:11;4.73;;;3.93;;
10719;SDS011;5411;58.386;15.560;2023-02-08T10:27:48;4.37;;;3.93;;
10719;SDS011;5411;58.386;15.560;2023-02-08T10:30:31;4.70;;;3.80;;
10719;SDS011;5411;58.386;15.560;2023-02-08T10:33:10;4.40;;;3.80;;
10719;SDS011;5411;58.386;15.560;2023-02-08T10:35:48;4.97;;;3.73;;
10719;SDS011;5411;58.386;15.560;2023-02-08T10:38:22;4.97;;;3.33;;
10719;SDS011;5411;58.386;15.560;2023-02-08T10:41:10;4.00;;;3.60;;
10719;SDS011;5411;58.386;15.560;2023-02-08T10:43:48;7.03;;;3.40;;
10719;SDS011;5411;58.386;15.560;2023-02-08T10:46:24;3.77;;;3.37;;
10719;SDS011;5411;58.386;15.560;2023-02-08T10:49:04;3.70;;;3.03;;
10719;SDS011;5411;58.386;15.560;2023-02-08T10:51:48;5.07;;;3.43;;
10719;SDS011;5411;58.386;15.560;2023-02-08T10:54:17;3.60;;;3.30;;
10719;SDS011;5411;58.386;15.560;2023-02-08T10:56:46;4.70;;;3.20;;
10719;SDS011;5411;58.386;15.560;2023-02-08T10:59:23;5.63;;;3.57;;
10719;SDS011;5411;58.386;15.560;2023-02-08T11:01:56;3.60;;;3.30;;
10719;SDS011;5411;58.386;15.560;2023-02-08T11:04:26;4.47;;;3.40;;
10719;SDS011;5411;58.386;15.560;2023-02-08T11:06:56;5.00;;;3.47;;
10719;SDS011;5411;58.386;15.560;2023-02-08T11:09:29;4.43;;;3.30;;
10719;SDS011;5411;58.386;15.560;2023-02-08T11:11:59;4.47;;;3.33;;
10719;SDS011;5411;58.386;15.560;2023-02-08T11:14:33;3.47;;;2.97;;
10719;SDS011;5411;58.386;15.560;2023-02-08T11:17:21;4.07;;;3.50;;
10719;SDS011;5411;58.386;15.560;2023-02-08T11:20:04;5.17;;;3.17;;
10719;SDS011;5411;58.386;15.560;2023-02-08T11:22:36;3.63;;;3.03;;
10719;SDS011;5411;58.386;15.560;2023-02-08T11:25:28;3.80;;;3.47;;
10719;SDS011;5411;58.386;15.560;2023-02-08T11:28:01;3.73;;;3.00;;
10719;SDS011;5411;58.386;15.560;2023-02-08T11:30:32;4.40;;;3.13;;
10719;SDS011;5411;58.386;15.560;2023-02-08T11:33:14;3.90;;;3.23;;
10719;SDS011;5411;58.386;15.560;2023-02-08T11:35:54;4.27;;;3.57;;
10719;SDS011;5411;58.386;15.560;2023-02-08T11:38:31;3.67;;;3.30;;
10719;SDS011;5411;58.386;15.560;2023-02-08T11:43:55;4.13;;;3.07;;
10719;SDS011;5411;58.386;15.560;2023-02-08T11:46:29;3.23;;;2.87;;
10719;SDS011;5411;58.386;15.560;2023-02-08T11:49:05;4.47;;;3.60;;
10719;SDS011;5411;58.386;15.560;2023-02-08T11:51:33;4.17;;;3.00;;
10719;SDS011;5411;58.386;15.560;2023-02-08T11:54:05;5.13;;;3.20;;
10719;SDS011;5411;58.386;15.560;2023-02-08T11:57:02;4.10;;;3.30;;
10719;SDS011;5411;58.386;15.560;2023-02-08T11:59:37;4.50;;;3.43;;
10719;SDS011;5411;58.386;15.560;2023-02-08T12:04:56;4.23;;;3.77;;
10719;SDS011;5411;58.386;15.560;2023-02-08T12:07:28;3.77;;;3.40;;
10719;SDS011;5411;58.386;15.560;2023-02-08T12:10:13;5.47;;;3.53;;
10719;SDS011;5411;58.386;15.560;2023-02-08T12:16:29;4.33;;;3.10;;
10719;SDS011;5411;58.386;15.560;2023-02-08T12:19:35;4.93;;;3.37;;
10719;SDS011;5411;58.386;15.560;2023-02-08T12:22:23;3.87;;;3.17;;
10719;SDS011;5411;58.386;15.560;2023-02-08T12:24:54;4.60;;;3.33;;
10719;SDS011;5411;58.386;15.560;2023-02-08T12:27:38;4.07;;;3.37;;
10719;SDS011;5411;58.386;15.560;2023-02-08T12:30:17;3.60;;;3.30;;
10719;SDS011;5411;58.386;15.560;2023-02-08T12:33:02;4.17;;;3.33;;
10719;SDS011;5411;58.386;15.560;2023-02-08T12:35:49;4.27;;;3.40;;
10719;SDS011;5411;58.386;15.560;2023-02-08T12:38:41;3.67;;;3.37;;
10719;SDS011;5411;58.386;15.560;2023-02-08T12:41:55;3.53;;;3.10;;
10719;SDS011;5411;58.386;15.560;2023-02-08T12:44:39;4.67;;;3.30;;
10719;SDS011;5411;58.386;15.560;2023-02-08T12:47:27;3.20;;;2.90;;
10719;SDS011;5411;58.386;15.560;2023-02-08T12:50:25;4.17;;;3.00;;
10719;SDS011;5411;58.386;15.560;2023-02-08T12:52:59;3.23;;;2.93;;
10719;SDS011;5411;58.386;15.560;2023-02-08T12:55:32;3.30;;;2.83;;
10719;SDS011;5411;58.386;15.560;2023-02-08T12:58:05;3.60;;;3.10;;
10719;SDS011;5411;58.386;15.560;2023-02-08T13:00:49;3.43;;;3.00;;
10719;SDS011;5411;58.386;15.560;2023-02-08T13:03:23;3.73;;;2.80;;
10719;SDS011;5411;58.386;15.560;2023-02-08T13:05:58;3.23;;;3.00;;
10719;SDS011;5411;58.386;15.560;2023-02-08T13:08:33;3.20;;;2.90;;
10719;SDS011;5411;58.386;15.560;2023-02-08T13:11:09;3.50;;;2.83;;
10719;SDS011;5411;58.386;15.560;2023-02-08T13:13:47;3.27;;;2.93;;
10719;SDS011;5411;58.386;15.560;2023-02-08T13:16:25;3.60;;;3.13;;
10719;SDS011;5411;58.386;15.560;2023-02-08T13:21:49;3.23;;;2.80;;
10719;SDS011;5411;58.386;15.560;2023-02-08T13:24:27;3.00;;;2.70;;
10719;SDS011;5411;58.386;15.560;2023-02-08T13:27:00;4.37;;;3.00;;
10719;SDS011;5411;58.386;15.560;2023-02-08T13:29:32;4.27;;;3.33;;
10719;SDS011;5411;58.386;15.560;2023-02-08T13:32:04;3.87;;;3.13;;
10719;SDS011;5411;58.386;15.560;2023-02-08T13:34:37;3.40;;;2.93;;
10719;SDS011;5411;58.386;15.560;2023-02-08T13:37:17;3.27;;;2.97;;
10719;SDS011;5411;58.386;15.560;2023-02-08T13:39:58;3.47;;;2.87;;
10719;SDS011;5411;58.386;15.560;2023-02-08T13:42:32;3.40;;;3.00;;
10719;SDS011;5411;58.386;15.560;2023-02-08T13:45:05;3.87;;;3.13;;
10719;SDS011;5411;58.386;15.560;2023-02-08T13:47:40;3.30;;;3.00;;
10719;SDS011;5411;58.386;15.560;2023-02-08T13:53:13;3.47;;;3.00;;
10719;SDS011;5411;58.386;15.560;2023-02-08T13:58:37;4.63;;;2.93;;
10719;SDS011;5411;58.386;15.560;2023-02-08T14:01:33;4.23;;;2.90;;
10719;SDS011;5411;58.386;15.560;2023-02-08T14:04:26;4.50;;;3.20;;
10719;SDS011;5411;58.386;15.560;2023-02-08T14:07:02;3.23;;;2.93;;
10719;SDS011;5411;58.386;15.560;2023-02-08T14:09:42;3.80;;;2.97;;
10719;SDS011;5411;58.386;15.560;2023-02-08T14:12:22;3.17;;;2.87;;
10719;SDS011;5411;58.386;15.560;2023-02-08T14:15:05;3.70;;;3.20;;
10719;SDS011;5411;58.386;15.560;2023-02-08T14:17:49;6.70;;;3.43;;
10719;SDS011;5411;58.386;15.560;2023-02-08T14:20:26;4.07;;;3.30;;
10719;SDS011;5411;58.386;15.560;2023-02-08T14:22:58;3.30;;;3.00;;
10719;SDS011;5411;58.386;15.560;2023-02-08T14:25:36;4.60;;;3.50;;
10719;SDS011;5411;58.386;15.560;2023-02-08T14:28:20;3.50;;;3.20;;
10719;SDS011;5411;58.386;15.560;2023-02-08T14:30:55;5.60;;;3.80;;
10719;SDS011;5411;58.386;15.560;2023-02-08T14:33:25;5.03;;;3.40;;
10719;SDS011;5411;58.386;15.560;2023-02-08T14:35:58;6.17;;;3.80;;
10719;SDS011;5411;58.386;15.560;2023-02-08T14:50:41;4.80;;;4.07;;
10719;SDS011;5411;58.386;15.560;2023-02-08T14:53:26;6.13;;;4.37;;
10719;SDS011;5411;58.386;15.560;2023-02-08T14:56:02;5.33;;;4.80;;
10719;SDS011;5411;58.386;15.560;2023-02-08T14:58:35;5.00;;;4.50;;
10719;SDS011;5411;58.386;15.560;2023-02-08T15:01:11;6.53;;;5.33;;
10719;SDS011;5411;58.386;15.560;2023-02-08T15:03:44;7.53;;;5.30;;
10719;SDS011;5411;58.386;15.560;2023-02-08T15:06:33;7.53;;;4.90;;
10719;SDS011;5411;58.386;15.560;2023-02-08T15:09:20;6.97;;;5.30;;
10719;SDS011;5411;58.386;15.560;2023-02-08T15:11:57;7.77;;;5.17;;
10719;SDS011;5411;58.386;15.560;2023-02-08T15:14:27;7.40;;;5.67;;
10719;SDS011;5411;58.386;15.560;2023-02-08T15:16:57;8.83;;;6.07;;
10719;SDS011;5411;58.386;15.560;2023-02-08T15:19:27;7.43;;;5.43;;
10719;SDS011;5411;58.386;15.560;2023-02-08T15:24:51;8.90;;;6.03;;
10719;SDS011;5411;58.386;15.560;2023-02-08T15:27:21;9.13;;;6.13;;
10719;SDS011;5411;58.386;15.560;2023-02-08T15:29:51;9.47;;;7.03;;
10719;SDS011;5411;58.386;15.560;2023-02-08T15:32:20;7.70;;;6.33;;
10719;SDS011;5411;58.386;15.560;2023-02-08T15:34:52;7.93;;;6.80;;
10719;SDS011;5411;58.386;15.560;2023-02-08T15:37:22;12.17;;;7.03;;
10719;SDS011;5411;58.386;15.560;2023-02-08T15:39:55;8.93;;;6.37;;
10719;SDS011;5411;58.386;15.560;2023-02-08T15:42:25;9.33;;;6.53;;
10719;SDS011;5411;58.386;15.560;2023-02-08T15:45:00;10.23;;;6.63;;
10719;SDS011;5411;58.386;15.560;2023-02-08T15:47:31;11.20;;;7.23;;
10719;SDS011;5411;58.386;15.560;2023-02-08T15:50:15;9.43;;;7.10;;
10719;SDS011;5411;58.386;15.560;2023-02-08T15:52:55;9.90;;;7.13;;
10719;SDS011;5411;58.386;15.560;2023-02-08T15:55:28;10.60;;;7.03;;
10719;SDS011;5411;58.386;15.560;2023-02-08T15:58:01;8.33;;;6.70;;
10719;SDS011;5411;58.386;15.560;2023-02-08T16:00:33;10.13;;;7.77;;
10719;SDS011;5411;58.386;15.560;2023-02-08T16:03:05;10.73;;;7.83;;